createdAt,value
2022-12-23T00:06:16.903Z,8.5
2022-12-23T00:12:04.781Z,9.1
2022-12-23T00:17:55.683Z,9.4
2022-12-23T00:23:48.535Z,8.2
2022-12-23T00:29:38.462Z,10.1
2022-12-23T00:35:29.770Z,9
2022-12-23T00:41:21.939Z,9.6
2022-12-23T00:47:13.008Z,9.1
2022-12-23T00:53:02.229Z,9.6
2022-12-23T00:58:53.919Z,14
2022-12-23T01:04:46.121Z,17.9
2022-12-23T01:10:37.354Z,13.1
2022-12-23T01:16:28.775Z,9.5
2022-12-23T01:22:19.957Z,8
2022-12-23T01:28:12.545Z,7.5
2022-12-23T01:34:04.189Z,7.7
2022-12-23T01:39:55.147Z,6.5
2022-12-23T01:45:47.699Z,6.5
2022-12-23T01:51:38.755Z,6.6
2022-12-23T01:57:29.629Z,7.3
2022-12-23T02:03:21.805Z,6.7
2022-12-23T02:09:12.437Z,6
2022-12-23T02:15:03.987Z,5.4
2022-12-23T02:20:53.429Z,5.8
2022-12-23T02:26:42.507Z,3.9
2022-12-23T02:32:35.136Z,1.6
2022-12-23T02:38:26.068Z,1.1
2022-12-23T02:44:16.795Z,1
2022-12-23T02:50:08.445Z,0.9
2022-12-23T02:55:59.014Z,0.7
2022-12-23T03:01:50.932Z,1.8
2022-12-23T03:07:42.080Z,1.5
2022-12-23T03:13:33.752Z,1.4
2022-12-23T03:19:24.173Z,3.1
2022-12-23T03:25:14.877Z,2.9
2022-12-23T03:31:03.945Z,1
2022-12-23T03:36:54.396Z,0.9
2022-12-23T03:42:45.001Z,1.5
2022-12-23T03:48:36.291Z,1.3
2022-12-23T03:54:29.344Z,1.2
2022-12-23T04:00:20.322Z,1.4
2022-12-23T04:06:12.617Z,1.2
2022-12-23T04:12:03.714Z,1.3
2022-12-23T04:17:56.032Z,1.3
2022-12-23T04:23:47.570Z,1.4
2022-12-23T04:29:38.293Z,1.2
2022-12-23T04:35:28.999Z,1.4
2022-12-23T04:41:20.645Z,1.4
2022-12-23T04:47:12.119Z,1.7
2022-12-23T04:53:04.847Z,1.7
2022-12-23T04:58:56.504Z,1.8
2022-12-23T05:04:47.585Z,1.8
2022-12-23T05:10:39.155Z,1.6
2022-12-23T05:16:31.563Z,1.5
2022-12-23T05:22:22.389Z,1.3
2022-12-23T05:28:13.546Z,1.6
2022-12-23T05:34:12.818Z,1.6
2022-12-23T05:40:03.919Z,1.6
2022-12-23T05:45:56.057Z,1.4
2022-12-23T05:51:47.913Z,1.2
2022-12-23T05:57:41.202Z,1.5
2022-12-23T06:03:34.483Z,1.6
2022-12-23T06:09:27.107Z,2
2022-12-23T06:15:18.131Z,1.4
2022-12-23T06:21:10.486Z,1.5
2022-12-23T06:27:04.884Z,1.8
2022-12-23T06:32:55.462Z,1.6
2022-12-23T06:38:47.213Z,2.3
2022-12-23T06:44:38.660Z,1.6
2022-12-23T06:50:30.403Z,1.4
2022-12-23T06:56:23.699Z,1.6
2022-12-23T07:02:18.338Z,2.6
2022-12-23T07:08:09.039Z,2
2022-12-23T07:14:02.741Z,2.8
2022-12-23T07:19:53.757Z,3.7
2022-12-23T07:25:45.029Z,3
2022-12-23T07:31:42.052Z,2
2022-12-23T07:37:32.950Z,1.7
2022-12-23T07:43:24.465Z,1.7
2022-12-23T07:49:15.658Z,1.3
2022-12-23T07:55:06.964Z,1.1
2022-12-23T08:00:59.402Z,1.4
2022-12-23T08:06:50.497Z,1.5
2022-12-23T08:12:41.764Z,1.6
2022-12-23T08:18:32.663Z,2.3
2022-12-23T08:24:24.947Z,3.9
2022-12-23T08:30:16.241Z,2.4
2022-12-23T08:36:07.930Z,2.9
2022-12-23T08:41:59.612Z,2.6
2022-12-23T08:47:51.814Z,3.6
2022-12-23T08:53:44.568Z,3.9
2022-12-23T08:59:36.189Z,4.2
2022-12-23T09:05:27.922Z,3.6
2022-12-23T09:11:19.964Z,3.3
2022-12-23T09:17:11.606Z,1.9
2022-12-23T09:23:02.825Z,1.3
2022-12-23T09:28:54.608Z,1.4
2022-12-23T09:34:45.243Z,1.4
2022-12-23T09:40:38.396Z,2
2022-12-23T09:46:29.677Z,3
2022-12-23T09:52:21.653Z,4
2022-12-23T09:58:13.748Z,5.1
2022-12-23T10:04:04.380Z,7.3
2022-12-23T10:09:56.696Z,7.1
2022-12-23T10:15:47.047Z,7.6
2022-12-23T10:21:42.300Z,6.8
2022-12-23T10:27:36.008Z,5.4
2022-12-23T10:33:26.898Z,4.3
2022-12-23T10:39:17.263Z,2.3
2022-12-23T10:45:07.956Z,2
2022-12-23T10:50:58.581Z,1.5
2022-12-23T10:56:49.452Z,1.4
2022-12-23T11:02:46.351Z,1.4
2022-12-23T11:08:40.101Z,1.6
2022-12-23T11:14:30.307Z,1.7
2022-12-23T11:20:21.095Z,2.1
2022-12-23T11:26:12.514Z,2.3
2022-12-23T11:32:03.314Z,2.7
2022-12-23T11:37:53.796Z,3.4
2022-12-23T11:44:55.800Z,4.3
2022-12-23T11:50:46.097Z,5.4
2022-12-23T11:56:35.883Z,4.3
2022-12-23T12:02:25.515Z,4.3
2022-12-23T12:08:16.347Z,6.5
2022-12-23T12:14:06.840Z,4
2022-12-23T12:19:56.980Z,4.2
2022-12-23T12:27:01.812Z,7.1
2022-12-23T12:32:56.054Z,5.8
2022-12-23T12:39:55.246Z,4.5
2022-12-23T12:45:46.072Z,4.7
2022-12-23T12:51:35.727Z,4.1
2022-12-23T13:02:04.413Z,5.5
2022-12-23T13:09:02.213Z,3.9
2022-12-23T13:14:53.371Z,3.7
2022-12-23T13:26:34.111Z,3.2
2022-12-23T13:32:23.341Z,3.7
2022-12-23T13:39:21.999Z,3.7
2022-12-23T13:45:12.640Z,4.1
2022-12-23T13:51:03.793Z,4.3
2022-12-23T13:56:57.015Z,4.2
2022-12-23T14:06:17.564Z,4.8
2022-12-23T14:14:29.898Z,3.6
2022-12-23T14:24:53.868Z,4.5
2022-12-23T14:30:41.829Z,3.8
2022-12-23T14:36:32.347Z,4
2022-12-23T14:42:23.457Z,5
2022-12-23T14:48:14.164Z,5.7
2022-12-23T14:54:06.572Z,5
2022-12-23T14:59:57.183Z,4.7
2022-12-23T15:06:57.102Z,5.8
2022-12-23T15:15:06.713Z,6.4
2022-12-23T15:20:55.582Z,4.5
2022-12-23T15:27:36.655Z,6.5
2022-12-23T15:34:33.383Z,4
2022-12-23T15:40:22.060Z,4
2022-12-23T15:46:12.488Z,4.3
2022-12-23T15:52:25.855Z,3.7
2022-12-23T15:58:14.732Z,3.4
2022-12-23T16:06:21.997Z,7.4
2022-12-23T16:12:09.996Z,11.5
2022-12-23T16:17:55.889Z,14.4
2022-12-23T16:23:45.112Z,21.2
2022-12-23T16:29:33.643Z,22.8
2022-12-23T16:35:24.844Z,18.9
2022-12-23T16:41:15.451Z,13.6
2022-12-23T16:47:03.924Z,15.6
2022-12-23T16:52:54.859Z,10.4
2022-12-23T16:58:46.457Z,3.3
2022-12-23T17:04:37.139Z,2.1
2022-12-23T17:10:27.881Z,1.6
2022-12-23T17:16:19.782Z,1.6
2022-12-23T17:22:10.302Z,1.8
2022-12-23T17:28:00.815Z,1.9
2022-12-23T17:33:51.111Z,2.2
2022-12-23T17:39:41.671Z,2.6
2022-12-23T17:45:32.136Z,2.5
2022-12-23T17:51:21.895Z,3.1
2022-12-23T17:57:11.840Z,3.2
2022-12-23T18:03:03.032Z,3.3
2022-12-23T18:08:52.096Z,3.7
2022-12-23T18:14:41.503Z,3.3
2022-12-23T18:20:31.655Z,3.1
2022-12-23T18:26:23.163Z,3.1
2022-12-23T18:32:13.294Z,3.2
2022-12-23T18:38:04.231Z,3.3
2022-12-23T18:43:54.441Z,3
2022-12-23T18:49:45.189Z,3.9
2022-12-23T18:55:36.361Z,3.5
2022-12-23T19:01:27.917Z,4.4
2022-12-23T19:07:18.951Z,2.8
2022-12-23T19:13:10.380Z,3
2022-12-23T19:19:00.781Z,3.5
2022-12-23T19:25:11.403Z,6.1
2022-12-23T19:31:01.004Z,5.8
2022-12-23T19:36:54.618Z,4.3
2022-12-23T19:42:45.138Z,4.3
2022-12-23T19:48:35.953Z,3.6
2022-12-23T19:54:27.729Z,3.7
2022-12-23T20:00:18.656Z,4.4
2022-12-23T20:06:09.996Z,4.3
2022-12-23T20:12:02.026Z,3.2
2022-12-23T20:17:52.987Z,3.1
2022-12-23T20:23:43.889Z,2.7
2022-12-23T20:29:35.250Z,3.4
2022-12-23T20:35:25.637Z,3
2022-12-23T20:41:16.553Z,3.2
2022-12-23T20:47:08.941Z,3.6
2022-12-23T20:53:00.111Z,3.4
2022-12-23T20:58:49.321Z,4.8
2022-12-23T21:04:40.316Z,3.5
2022-12-23T21:10:31.697Z,4.3
2022-12-23T21:16:24.841Z,3.3
2022-12-23T21:22:16.193Z,3.8
2022-12-23T21:28:06.602Z,3
2022-12-23T21:33:59.167Z,3.7
2022-12-23T21:40:59.901Z,2.8
2022-12-23T21:46:49.190Z,3.1
2022-12-23T21:52:39.976Z,5.1
2022-12-23T21:58:29.284Z,2.7
2022-12-23T22:04:19.701Z,2.8
2022-12-23T22:10:11.741Z,2.4
2022-12-23T22:16:03.935Z,3.2
2022-12-23T22:21:55.504Z,2.4
2022-12-23T22:27:46.781Z,2.9
2022-12-23T22:33:39.608Z,2.8
2022-12-23T22:39:29.510Z,3.1
2022-12-23T22:45:21.437Z,3.1
2022-12-23T22:51:13.700Z,2.9
2022-12-23T22:57:04.131Z,3
2022-12-23T23:02:52.780Z,2.9
2022-12-23T23:08:42.099Z,3.4
2022-12-23T23:14:31.357Z,2.8
2022-12-23T23:20:20.280Z,2.8
2022-12-23T23:26:11.484Z,3.1
2022-12-23T23:32:01.916Z,3.2
2022-12-23T23:37:52.498Z,3
2022-12-23T23:43:43.448Z,3.4
2022-12-23T23:49:33.715Z,3.4
2022-12-23T23:55:23.869Z,3.5
